KDTL/DTL METAR and TAF weather

Enter ICAO airport designator
Station Type Date Time Source
KDTL METAR 2020/01/20 12:55 UTC NOAA

KDTL 201255Z AUTO 00000KT 10SM SCT001 M23/M26 A3063 RMK AO2


Station Type Date Time Source
KDTL Decoded METAR 2020/01/20 12:55 UTC NOAA

Detroit Lakes, Detroit Lakes Airport-Wething Field, MN, United States (KDTL) 46-50N 095-53W
Jan 20, 2020 - 07:55 AM EST / 2020.01.20 1255 UTC
Wind: Calm:0
Visibility: 10 mile(s):0
Sky conditions: partly cloudy
Temperature: -9 F (-23 C)
Dew Point: -14 F (-26 C)
Relative Humidity: 76%
Pressure (altimeter): 30.63 in. Hg (1037 hPa)
ob: KDTL 201255Z AUTO 00000KT 10SM SCT001 M23/M26 A3063 RMK AO2
cycle: 13

Station Type Date Time Source
KDTL TAF UTC NOAA

Error!

Example: see airport list